sensor_id;sensor_type;location;lat;lon;timestamp;temperature;humidity
11107;DHT22;5607;48.302;14.294;2022-11-20T00:00:40;3.90;1.00
11107;DHT22;5607;48.302;14.294;2022-11-20T00:03:26;3.80;1.00
11107;DHT22;5607;48.302;14.294;2022-11-20T00:06:14;3.90;1.00
11107;DHT22;5607;48.302;14.294;2022-11-20T00:09:00;3.90;1.00
11107;DHT22;5607;48.302;14.294;2022-11-20T00:11:47;3.90;1.00
11107;DHT22;5607;48.302;14.294;2022-11-20T00:14:33;3.90;1.00
11107;DHT22;5607;48.302;14.294;2022-11-20T00:17:19;3.90;1.00
11107;DHT22;5607;48.302;14.294;2022-11-20T00:20:06;3.90;1.00
11107;DHT22;5607;48.302;14.294;2022-11-20T00:22:52;3.90;1.00
11107;DHT22;5607;48.302;14.294;2022-11-20T00:25:39;3.90;1.00
11107;DHT22;5607;48.302;14.294;2022-11-20T00:28:25;3.80;1.00
11107;DHT22;5607;48.302;14.294;2022-11-20T00:31:14;3.80;1.00
11107;DHT22;5607;48.302;14.294;2022-11-20T00:34:01;3.90;1.00
11107;DHT22;5607;48.302;14.294;2022-11-20T00:36:47;3.90;1.00
11107;DHT22;5607;48.302;14.294;2022-11-20T00:39:34;3.90;1.00
11107;DHT22;5607;48.302;14.294;2022-11-20T00:42:20;3.90;1.00
11107;DHT22;5607;48.302;14.294;2022-11-20T00:45:06;3.90;1.00
11107;DHT22;5607;48.302;14.294;2022-11-20T00:47:52;3.80;1.00
11107;DHT22;5607;48.302;14.294;2022-11-20T00:50:39;3.80;1.00
11107;DHT22;5607;48.302;14.294;2022-11-20T00:53:27;3.80;1.00
11107;DHT22;5607;48.302;14.294;2022-11-20T00:56:14;3.80;1.00
11107;DHT22;5607;48.302;14.294;2022-11-20T00:59:01;3.90;1.00
11107;DHT22;5607;48.302;14.294;2022-11-20T01:01:47;4.00;1.00
11107;DHT22;5607;48.302;14.294;2022-11-20T01:04:33;3.90;1.00
11107;DHT22;5607;48.302;14.294;2022-11-20T01:07:19;3.90;1.00
11107;DHT22;5607;48.302;14.294;2022-11-20T01:10:06;3.90;1.00
11107;DHT22;5607;48.302;14.294;2022-11-20T01:12:52;3.90;1.00
11107;DHT22;5607;48.302;14.294;2022-11-20T01:16:02;3.90;1.00
11107;DHT22;5607;48.302;14.294;2022-11-20T01:18:49;3.80;1.00
11107;DHT22;5607;48.302;14.294;2022-11-20T01:21:37;3.90;1.00
11107;DHT22;5607;48.302;14.294;2022-11-20T01:24:23;3.80;1.00
11107;DHT22;5607;48.302;14.294;2022-11-20T01:27:09;3.70;1.00
11107;DHT22;5607;48.302;14.294;2022-11-20T01:29:56;3.70;1.00
11107;DHT22;5607;48.302;14.294;2022-11-20T01:32:42;3.70;1.00
11107;DHT22;5607;48.302;14.294;2022-11-20T01:35:28;3.70;1.00
11107;DHT22;5607;48.302;14.294;2022-11-20T01:38:15;3.70;1.00
11107;DHT22;5607;48.302;14.294;2022-11-20T01:41:02;3.70;1.00
11107;DHT22;5607;48.302;14.294;2022-11-20T01:43:48;3.70;1.00
11107;DHT22;5607;48.302;14.294;2022-11-20T01:46:35;3.70;1.00
11107;DHT22;5607;48.302;14.294;2022-11-20T01:52:28;3.80;1.00
11107;DHT22;5607;48.302;14.294;2022-11-20T01:55:20;3.80;1.00
11107;DHT22;5607;48.302;14.294;2022-11-20T01:58:08;3.80;1.00
11107;DHT22;5607;48.302;14.294;2022-11-20T02:00:54;3.80;1.00
11107;DHT22;5607;48.302;14.294;2022-11-20T02:03:41;3.80;1.00
11107;DHT22;5607;48.302;14.294;2022-11-20T02:06:32;3.90;1.00
11107;DHT22;5607;48.302;14.294;2022-11-20T02:09:18;3.90;1.00
11107;DHT22;5607;48.302;14.294;2022-11-20T02:12:05;3.90;1.00
11107;DHT22;5607;48.302;14.294;2022-11-20T02:14:51;4.00;1.00
11107;DHT22;5607;48.302;14.294;2022-11-20T02:17:37;3.90;1.00
11107;DHT22;5607;48.302;14.294;2022-11-20T02:20:24;3.90;1.00
11107;DHT22;5607;48.302;14.294;2022-11-20T02:23:12;3.90;1.00
11107;DHT22;5607;48.302;14.294;2022-11-20T02:25:58;3.80;1.00
11107;DHT22;5607;48.302;14.294;2022-11-20T02:28:46;3.90;1.00
11107;DHT22;5607;48.302;14.294;2022-11-20T02:31:36;3.90;1.00
11107;DHT22;5607;48.302;14.294;2022-11-20T02:34:23;3.80;1.00
11107;DHT22;5607;48.302;14.294;2022-11-20T02:37:09;3.90;1.00
11107;DHT22;5607;48.302;14.294;2022-11-20T02:39:55;3.90;1.00
11107;DHT22;5607;48.302;14.294;2022-11-20T02:42:42;3.90;1.00
11107;DHT22;5607;48.302;14.294;2022-11-20T02:45:28;3.90;1.00
11107;DHT22;5607;48.302;14.294;2022-11-20T02:48:14;3.90;1.00
11107;DHT22;5607;48.302;14.294;2022-11-20T02:51:00;3.80;1.00
11107;DHT22;5607;48.302;14.294;2022-11-20T02:53:47;3.80;1.00
11107;DHT22;5607;48.302;14.294;2022-11-20T02:56:33;3.80;1.00
11107;DHT22;5607;48.302;14.294;2022-11-20T02:59:19;3.90;1.00
11107;DHT22;5607;48.302;14.294;2022-11-20T03:02:05;3.90;1.00
11107;DHT22;5607;48.302;14.294;2022-11-20T03:04:51;3.90;1.00
11107;DHT22;5607;48.302;14.294;2022-11-20T03:07:38;3.90;1.00
11107;DHT22;5607;48.302;14.294;2022-11-20T03:10:24;3.90;1.00
11107;DHT22;5607;48.302;14.294;2022-11-20T03:13:10;3.90;1.00
11107;DHT22;5607;48.302;14.294;2022-11-20T03:15:56;3.90;1.00
11107;DHT22;5607;48.302;14.294;2022-11-20T03:18:43;4.00;1.00
11107;DHT22;5607;48.302;14.294;2022-11-20T03:21:29;3.80;1.00
11107;DHT22;5607;48.302;14.294;2022-11-20T03:24:15;3.80;1.00
11107;DHT22;5607;48.302;14.294;2022-11-20T03:27:02;3.80;1.00
11107;DHT22;5607;48.302;14.294;2022-11-20T03:29:48;3.80;1.00
11107;DHT22;5607;48.302;14.294;2022-11-20T03:32:34;3.80;1.00
11107;DHT22;5607;48.302;14.294;2022-11-20T03:35:20;3.80;1.00
11107;DHT22;5607;48.302;14.294;2022-11-20T03:38:07;3.80;1.00
11107;DHT22;5607;48.302;14.294;2022-11-20T03:40:57;3.80;1.00
11107;DHT22;5607;48.302;14.294;2022-11-20T03:43:49;3.70;1.00
11107;DHT22;5607;48.302;14.294;2022-11-20T03:46:36;3.70;1.00
11107;DHT22;5607;48.302;14.294;2022-11-20T03:49:22;3.60;1.00
11107;DHT22;5607;48.302;14.294;2022-11-20T03:52:08;3.70;1.00
11107;DHT22;5607;48.302;14.294;2022-11-20T03:54:55;3.70;1.00
11107;DHT22;5607;48.302;14.294;2022-11-20T03:57:41;3.80;1.00
11107;DHT22;5607;48.302;14.294;2022-11-20T04:00:27;3.80;1.00
11107;DHT22;5607;48.302;14.294;2022-11-20T04:03:13;3.80;1.00
11107;DHT22;5607;48.302;14.294;2022-11-20T04:06:07;3.80;1.00
11107;DHT22;5607;48.302;14.294;2022-11-20T04:08:54;3.80;1.00
11107;DHT22;5607;48.302;14.294;2022-11-20T04:11:41;3.80;1.00
11107;DHT22;5607;48.302;14.294;2022-11-20T04:14:27;3.80;1.00
11107;DHT22;5607;48.302;14.294;2022-11-20T04:17:13;3.70;1.00
11107;DHT22;5607;48.302;14.294;2022-11-20T04:20:00;3.70;1.00
11107;DHT22;5607;48.302;14.294;2022-11-20T04:22:47;3.80;1.00
11107;DHT22;5607;48.302;14.294;2022-11-20T04:25:33;3.80;1.00
11107;DHT22;5607;48.302;14.294;2022-11-20T04:28:19;3.80;1.00
11107;DHT22;5607;48.302;14.294;2022-11-20T04:31:09;3.80;1.00
11107;DHT22;5607;48.302;14.294;2022-11-20T04:33:58;3.80;1.00
11107;DHT22;5607;48.302;14.294;2022-11-20T04:36:45;3.80;1.00
11107;DHT22;5607;48.302;14.294;2022-11-20T04:39:31;3.80;1.00
11107;DHT22;5607;48.302;14.294;2022-11-20T04:42:17;3.80;1.00
11107;DHT22;5607;48.302;14.294;2022-11-20T04:45:15;3.90;1.00
11107;DHT22;5607;48.302;14.294;2022-11-20T04:48:02;3.90;1.00
11107;DHT22;5607;48.302;14.294;2022-11-20T04:50:48;3.80;1.00
11107;DHT22;5607;48.302;14.294;2022-11-20T04:53:34;3.80;1.00
11107;DHT22;5607;48.302;14.294;2022-11-20T04:56:21;3.80;1.00
11107;DHT22;5607;48.302;14.294;2022-11-20T04:59:07;3.80;1.00
11107;DHT22;5607;48.302;14.294;2022-11-20T05:01:53;3.70;1.00
11107;DHT22;5607;48.302;14.294;2022-11-20T05:04:39;3.70;1.00
11107;DHT22;5607;48.302;14.294;2022-11-20T05:07:25;3.70;1.00
11107;DHT22;5607;48.302;14.294;2022-11-20T05:10:12;3.70;1.00
11107;DHT22;5607;48.302;14.294;2022-11-20T05:12:58;3.80;1.00
11107;DHT22;5607;48.302;14.294;2022-11-20T05:15:44;3.80;1.00
11107;DHT22;5607;48.302;14.294;2022-11-20T05:18:30;3.80;1.00
11107;DHT22;5607;48.302;14.294;2022-11-20T05:21:17;3.80;1.00
11107;DHT22;5607;48.302;14.294;2022-11-20T05:24:03;3.70;1.00
11107;DHT22;5607;48.302;14.294;2022-11-20T05:26:50;3.70;1.00
11107;DHT22;5607;48.302;14.294;2022-11-20T05:29:37;3.80;1.00
11107;DHT22;5607;48.302;14.294;2022-11-20T05:32:23;3.80;1.00
11107;DHT22;5607;48.302;14.294;2022-11-20T05:35:11;3.80;1.00
11107;DHT22;5607;48.302;14.294;2022-11-20T05:37:57;3.80;1.00
11107;DHT22;5607;48.302;14.294;2022-11-20T05:40:43;3.80;1.00
11107;DHT22;5607;48.302;14.294;2022-11-20T05:43:31;3.80;1.00
11107;DHT22;5607;48.302;14.294;2022-11-20T05:46:18;3.90;1.00
11107;DHT22;5607;48.302;14.294;2022-11-20T05:49:05;3.90;1.00
11107;DHT22;5607;48.302;14.294;2022-11-20T05:51:51;3.90;1.00
11107;DHT22;5607;48.302;14.294;2022-11-20T05:54:37;3.90;1.00
11107;DHT22;5607;48.302;14.294;2022-11-20T05:57:24;4.00;1.00
11107;DHT22;5607;48.302;14.294;2022-11-20T06:00:10;4.00;1.00
11107;DHT22;5607;48.302;14.294;2022-11-20T06:02:57;4.00;1.00
11107;DHT22;5607;48.302;14.294;2022-11-20T06:05:43;4.00;1.00
11107;DHT22;5607;48.302;14.294;2022-11-20T06:08:30;4.10;1.00
11107;DHT22;5607;48.302;14.294;2022-11-20T06:11:16;4.00;1.00
11107;DHT22;5607;48.302;14.294;2022-11-20T06:14:03;4.10;1.00
11107;DHT22;5607;48.302;14.294;2022-11-20T06:16:49;4.10;1.00
11107;DHT22;5607;48.302;14.294;2022-11-20T06:19:36;4.10;1.00
11107;DHT22;5607;48.302;14.294;2022-11-20T06:22:22;4.00;1.00
11107;DHT22;5607;48.302;14.294;2022-11-20T06:25:08;4.10;1.00
11107;DHT22;5607;48.302;14.294;2022-11-20T06:27:54;4.00;1.00
11107;DHT22;5607;48.302;14.294;2022-11-20T06:30:44;4.00;1.00
11107;DHT22;5607;48.302;14.294;2022-11-20T06:33:30;4.00;1.00
11107;DHT22;5607;48.302;14.294;2022-11-20T06:36:17;4.10;1.00
11107;DHT22;5607;48.302;14.294;2022-11-20T06:39:04;4.10;1.00
11107;DHT22;5607;48.302;14.294;2022-11-20T06:41:50;4.10;1.00
11107;DHT22;5607;48.302;14.294;2022-11-20T06:44:36;4.20;1.00
11107;DHT22;5607;48.302;14.294;2022-11-20T06:47:23;4.20;1.00
11107;DHT22;5607;48.302;14.294;2022-11-20T06:50:09;4.20;1.00
11107;DHT22;5607;48.302;14.294;2022-11-20T06:52:55;4.20;1.00
11107;DHT22;5607;48.302;14.294;2022-11-20T06:55:42;4.30;1.00
11107;DHT22;5607;48.302;14.294;2022-11-20T06:58:30;4.30;1.00
11107;DHT22;5607;48.302;14.294;2022-11-20T07:01:16;4.20;1.00
11107;DHT22;5607;48.302;14.294;2022-11-20T07:04:03;4.30;1.00
11107;DHT22;5607;48.302;14.294;2022-11-20T07:06:49;4.30;1.00
11107;DHT22;5607;48.302;14.294;2022-11-20T07:09:36;4.30;1.00
11107;DHT22;5607;48.302;14.294;2022-11-20T07:12:22;4.30;1.00
11107;DHT22;5607;48.302;14.294;2022-11-20T07:15:08;4.40;1.00
11107;DHT22;5607;48.302;14.294;2022-11-20T07:17:54;4.40;1.00
11107;DHT22;5607;48.302;14.294;2022-11-20T07:20:40;4.30;1.00
11107;DHT22;5607;48.302;14.294;2022-11-20T07:23:27;4.40;1.00
11107;DHT22;5607;48.302;14.294;2022-11-20T07:26:13;4.30;1.00
11107;DHT22;5607;48.302;14.294;2022-11-20T07:28:59;4.30;1.00
11107;DHT22;5607;48.302;14.294;2022-11-20T07:31:46;4.30;1.00
11107;DHT22;5607;48.302;14.294;2022-11-20T07:34:32;4.30;1.00
11107;DHT22;5607;48.302;14.294;2022-11-20T07:37:18;4.40;1.00
11107;DHT22;5607;48.302;14.294;2022-11-20T07:40:04;4.40;1.00
11107;DHT22;5607;48.302;14.294;2022-11-20T07:42:51;4.50;1.00
11107;DHT22;5607;48.302;14.294;2022-11-20T07:45:38;4.50;1.00
11107;DHT22;5607;48.302;14.294;2022-11-20T07:48:24;4.50;1.00
11107;DHT22;5607;48.302;14.294;2022-11-20T07:51:11;4.60;1.00
11107;DHT22;5607;48.302;14.294;2022-11-20T07:53:57;4.60;1.00
11107;DHT22;5607;48.302;14.294;2022-11-20T07:56:43;4.60;1.00
11107;DHT22;5607;48.302;14.294;2022-11-20T07:59:29;4.50;1.00
11107;DHT22;5607;48.302;14.294;2022-11-20T08:02:16;4.60;1.00
11107;DHT22;5607;48.302;14.294;2022-11-20T08:05:02;4.70;1.00
11107;DHT22;5607;48.302;14.294;2022-11-20T08:07:48;4.80;1.00
11107;DHT22;5607;48.302;14.294;2022-11-20T08:10:34;4.70;1.00
11107;DHT22;5607;48.302;14.294;2022-11-20T08:13:21;4.60;1.00
11107;DHT22;5607;48.302;14.294;2022-11-20T08:16:25;4.60;1.00
11107;DHT22;5607;48.302;14.294;2022-11-20T08:19:12;4.60;1.00
11107;DHT22;5607;48.302;14.294;2022-11-20T08:21:59;4.40;1.00
11107;DHT22;5607;48.302;14.294;2022-11-20T08:24:45;4.50;1.00
11107;DHT22;5607;48.302;14.294;2022-11-20T08:27:31;4.60;1.00
11107;DHT22;5607;48.302;14.294;2022-11-20T08:30:18;4.70;1.00
11107;DHT22;5607;48.302;14.294;2022-11-20T08:33:05;4.80;1.00
11107;DHT22;5607;48.302;14.294;2022-11-20T08:35:52;4.90;1.00
11107;DHT22;5607;48.302;14.294;2022-11-20T08:38:38;4.90;1.00
11107;DHT22;5607;48.302;14.294;2022-11-20T08:41:24;4.90;1.00
11107;DHT22;5607;48.302;14.294;2022-11-20T08:44:14;5.00;1.00
11107;DHT22;5607;48.302;14.294;2022-11-20T08:47:00;5.00;1.00
11107;DHT22;5607;48.302;14.294;2022-11-20T08:49:46;5.00;1.00
11107;DHT22;5607;48.302;14.294;2022-11-20T08:52:33;5.00;1.00
11107;DHT22;5607;48.302;14.294;2022-11-20T08:55:21;5.10;1.00
11107;DHT22;5607;48.302;14.294;2022-11-20T08:58:08;5.20;1.00
11107;DHT22;5607;48.302;14.294;2022-11-20T09:00:55;5.30;1.00
11107;DHT22;5607;48.302;14.294;2022-11-20T09:03:41;5.30;1.00
11107;DHT22;5607;48.302;14.294;2022-11-20T09:06:28;5.30;1.00
11107;DHT22;5607;48.302;14.294;2022-11-20T09:09:14;5.40;1.00
11107;DHT22;5607;48.302;14.294;2022-11-20T09:12:00;5.50;1.00
11107;DHT22;5607;48.302;14.294;2022-11-20T09:14:47;5.50;1.00
11107;DHT22;5607;48.302;14.294;2022-11-20T09:17:33;5.70;1.00
11107;DHT22;5607;48.302;14.294;2022-11-20T09:20:19;5.70;1.00
11107;DHT22;5607;48.302;14.294;2022-11-20T09:23:05;5.80;1.00
11107;DHT22;5607;48.302;14.294;2022-11-20T09:25:52;5.90;1.00
11107;DHT22;5607;48.302;14.294;2022-11-20T09:28:38;6.20;1.00
11107;DHT22;5607;48.302;14.294;2022-11-20T09:31:25;6.20;1.00
11107;DHT22;5607;48.302;14.294;2022-11-20T09:34:12;6.30;1.00
11107;DHT22;5607;48.302;14.294;2022-11-20T09:36:58;6.40;1.00
11107;DHT22;5607;48.302;14.294;2022-11-20T09:39:44;6.50;1.00
11107;DHT22;5607;48.302;14.294;2022-11-20T09:48:46;6.70;1.00
11107;DHT22;5607;48.302;14.294;2022-11-20T09:51:36;6.80;1.00
11107;DHT22;5607;48.302;14.294;2022-11-20T09:54:37;6.70;1.00
11107;DHT22;5607;48.302;14.294;2022-11-20T09:57:34;6.50;1.00
11107;DHT22;5607;48.302;14.294;2022-11-20T10:00:22;6.20;1.00
11107;DHT22;5607;48.302;14.294;2022-11-20T10:03:52;6.40;1.00
11107;DHT22;5607;48.302;14.294;2022-11-20T10:06:20;6.60;1.00
11107;DHT22;5607;48.302;14.294;2022-11-20T10:12:04;7.00;1.00
11107;DHT22;5607;48.302;14.294;2022-11-20T10:18:15;7.00;1.00
11107;DHT22;5607;48.302;14.294;2022-11-20T10:27:13;7.00;1.00
11107;DHT22;5607;48.302;14.294;2022-11-20T10:30:13;7.10;1.00
11107;DHT22;5607;48.302;14.294;2022-11-20T10:33:12;7.50;1.00
11107;DHT22;5607;48.302;14.294;2022-11-20T10:36:05;7.80;1.00
11107;DHT22;5607;48.302;14.294;2022-11-20T10:41:57;8.20;1.00
11107;DHT22;5607;48.302;14.294;2022-11-20T10:44:50;8.00;1.00
11107;DHT22;5607;48.302;14.294;2022-11-20T10:47:49;8.00;1.00
11107;DHT22;5607;48.302;14.294;2022-11-20T10:50:37;7.90;1.00
11107;DHT22;5607;48.302;14.294;2022-11-20T10:53:40;7.80;1.00
11107;DHT22;5607;48.302;14.294;2022-11-20T10:59:32;8.20;1.00
11107;DHT22;5607;48.302;14.294;2022-11-20T11:02:29;8.40;1.00
11107;DHT22;5607;48.302;14.294;2022-11-20T11:05:31;8.40;1.00
11107;DHT22;5607;48.302;14.294;2022-11-20T11:08:19;8.40;1.00
11107;DHT22;5607;48.302;14.294;2022-11-20T11:11:20;8.60;1.00
11107;DHT22;5607;48.302;14.294;2022-11-20T11:14:10;8.70;1.00
11107;DHT22;5607;48.302;14.294;2022-11-20T11:16:57;8.70;1.00
11107;DHT22;5607;48.302;14.294;2022-11-20T11:19:43;8.50;1.00
11107;DHT22;5607;48.302;14.294;2022-11-20T11:22:31;8.40;1.00
11107;DHT22;5607;48.302;14.294;2022-11-20T11:25:39;8.30;1.00
11107;DHT22;5607;48.302;14.294;2022-11-20T11:28:24;7.90;1.00
11107;DHT22;5607;48.302;14.294;2022-11-20T11:31:21;7.70;1.00
11107;DHT22;5607;48.302;14.294;2022-11-20T11:34:08;7.60;1.00
11107;DHT22;5607;48.302;14.294;2022-11-20T11:36:58;7.60;1.00
11107;DHT22;5607;48.302;14.294;2022-11-20T11:39:45;7.60;1.00
11107;DHT22;5607;48.302;14.294;2022-11-20T11:42:32;7.70;1.00
11107;DHT22;5607;48.302;14.294;2022-11-20T11:45:19;7.90;1.00
11107;DHT22;5607;48.302;14.294;2022-11-20T11:48:07;7.80;1.00
11107;DHT22;5607;48.302;14.294;2022-11-20T11:50:54;7.80;1.00
11107;DHT22;5607;48.302;14.294;2022-11-20T11:53:40;7.80;1.00
11107;DHT22;5607;48.302;14.294;2022-11-20T11:56:28;7.70;1.00
11107;DHT22;5607;48.302;14.294;2022-11-20T11:59:18;7.80;1.00
11107;DHT22;5607;48.302;14.294;2022-11-20T12:05:19;7.60;1.00
11107;DHT22;5607;48.302;14.294;2022-11-20T12:13:42;7.30;1.00
11107;DHT22;5607;48.302;14.294;2022-11-20T12:16:34;7.30;1.00
11107;DHT22;5607;48.302;14.294;2022-11-20T12:19:21;7.30;1.00
11107;DHT22;5607;48.302;14.294;2022-11-20T12:22:13;7.30;1.00
11107;DHT22;5607;48.302;14.294;2022-11-20T12:25:14;7.30;1.00
11107;DHT22;5607;48.302;14.294;2022-11-20T12:37:10;7.30;1.00
11107;DHT22;5607;48.302;14.294;2022-11-20T12:39:49;7.40;1.00
11107;DHT22;5607;48.302;14.294;2022-11-20T12:42:55;7.50;1.00
11107;DHT22;5607;48.302;14.294;2022-11-20T12:46:08;7.60;1.00
11107;DHT22;5607;48.302;14.294;2022-11-20T12:57:50;7.80;1.00
11107;DHT22;5607;48.302;14.294;2022-11-20T13:00:41;7.80;1.00
11107;DHT22;5607;48.302;14.294;2022-11-20T13:06:48;7.70;1.00
11107;DHT22;5607;48.302;14.294;2022-11-20T13:09:36;7.80;1.00
11107;DHT22;5607;48.302;14.294;2022-11-20T13:12:38;7.80;1.00
11107;DHT22;5607;48.302;14.294;2022-11-20T13:15:33;7.80;1.00
11107;DHT22;5607;48.302;14.294;2022-11-20T13:18:22;7.70;1.00
11107;DHT22;5607;48.302;14.294;2022-11-20T13:21:18;7.80;1.00
11107;DHT22;5607;48.302;14.294;2022-11-20T13:24:06;7.80;1.00
11107;DHT22;5607;48.302;14.294;2022-11-20T13:27:17;7.90;1.00
11107;DHT22;5607;48.302;14.294;2022-11-20T13:30:15;7.90;1.00
11107;DHT22;5607;48.302;14.294;2022-11-20T13:36:20;8.00;1.00
11107;DHT22;5607;48.302;14.294;2022-11-20T13:39:01;7.90;1.00
11107;DHT22;5607;48.302;14.294;2022-11-20T13:41:53;7.90;1.00
11107;DHT22;5607;48.302;14.294;2022-11-20T13:44:45;7.90;1.00
11107;DHT22;5607;48.302;14.294;2022-11-20T13:47:33;7.80;1.00
11107;DHT22;5607;48.302;14.294;2022-11-20T13:50:23;7.70;1.00
11107;DHT22;5607;48.302;14.294;2022-11-20T13:53:27;7.60;1.00
11107;DHT22;5607;48.302;14.294;2022-11-20T14:02:27;7.50;1.00
11107;DHT22;5607;48.302;14.294;2022-11-20T14:05:19;7.60;1.00
11107;DHT22;5607;48.302;14.294;2022-11-20T14:08:06;7.80;1.00
11107;DHT22;5607;48.302;14.294;2022-11-20T14:11:04;7.80;1.00
11107;DHT22;5607;48.302;14.294;2022-11-20T14:13:52;7.70;1.00
11107;DHT22;5607;48.302;14.294;2022-11-20T14:16:39;7.70;1.00
11107;DHT22;5607;48.302;14.294;2022-11-20T14:19:31;7.60;1.00
11107;DHT22;5607;48.302;14.294;2022-11-20T14:22:24;7.60;1.00
11107;DHT22;5607;48.302;14.294;2022-11-20T14:28:03;7.50;1.00
11107;DHT22;5607;48.302;14.294;2022-11-20T14:30:50;7.30;1.00
11107;DHT22;5607;48.302;14.294;2022-11-20T14:33:36;7.30;1.00
11107;DHT22;5607;48.302;14.294;2022-11-20T14:36:23;7.30;1.00
11107;DHT22;5607;48.302;14.294;2022-11-20T14:39:11;7.30;1.00
11107;DHT22;5607;48.302;14.294;2022-11-20T14:41:58;7.40;1.00
11107;DHT22;5607;48.302;14.294;2022-11-20T14:44:44;7.40;1.00
11107;DHT22;5607;48.302;14.294;2022-11-20T14:47:31;7.40;1.00
11107;DHT22;5607;48.302;14.294;2022-11-20T14:50:19;7.40;1.00
11107;DHT22;5607;48.302;14.294;2022-11-20T14:53:06;7.40;1.00
11107;DHT22;5607;48.302;14.294;2022-11-20T14:55:56;7.40;1.00
11107;DHT22;5607;48.302;14.294;2022-11-20T14:58:43;7.40;1.00
11107;DHT22;5607;48.302;14.294;2022-11-20T15:01:30;7.40;1.00
11107;DHT22;5607;48.302;14.294;2022-11-20T15:04:16;7.40;1.00
11107;DHT22;5607;48.302;14.294;2022-11-20T15:07:03;7.30;1.00
11107;DHT22;5607;48.302;14.294;2022-11-20T15:09:58;7.30;1.00
11107;DHT22;5607;48.302;14.294;2022-11-20T15:12:49;7.20;1.00
11107;DHT22;5607;48.302;14.294;2022-11-20T15:15:37;7.30;1.00
11107;DHT22;5607;48.302;14.294;2022-11-20T15:18:28;7.20;1.00
11107;DHT22;5607;48.302;14.294;2022-11-20T15:21:19;7.20;1.00
11107;DHT22;5607;48.302;14.294;2022-11-20T15:24:08;7.20;1.00
11107;DHT22;5607;48.302;14.294;2022-11-20T15:26:54;7.30;1.00
11107;DHT22;5607;48.302;14.294;2022-11-20T15:29:41;7.20;1.00
11107;DHT22;5607;48.302;14.294;2022-11-20T15:32:27;7.20;1.70
11107;DHT22;5607;48.302;14.294;2022-11-20T15:35:14;7.20;8.90
11107;DHT22;5607;48.302;14.294;2022-11-20T15:38:00;7.20;13.00
11107;DHT22;5607;48.302;14.294;2022-11-20T15:40:47;7.10;12.50
11107;DHT22;5607;48.302;14.294;2022-11-20T15:43:34;7.00;16.00
11107;DHT22;5607;48.302;14.294;2022-11-20T15:46:25;7.00;19.60
11107;DHT22;5607;48.302;14.294;2022-11-20T15:49:14;7.00;22.40
11107;DHT22;5607;48.302;14.294;2022-11-20T15:52:00;7.00;18.10
11107;DHT22;5607;48.302;14.294;2022-11-20T15:54:46;7.00;14.90
11107;DHT22;5607;48.302;14.294;2022-11-20T15:57:33;7.10;19.40
11107;DHT22;5607;48.302;14.294;2022-11-20T16:00:19;7.20;15.80
11107;DHT22;5607;48.302;14.294;2022-11-20T16:03:08;7.10;24.00
11107;DHT22;5607;48.302;14.294;2022-11-20T16:05:55;7.10;22.70
11107;DHT22;5607;48.302;14.294;2022-11-20T16:08:41;7.10;28.60
11107;DHT22;5607;48.302;14.294;2022-11-20T16:11:27;7.10;27.10
11107;DHT22;5607;48.302;14.294;2022-11-20T16:14:13;7.10;32.60
11107;DHT22;5607;48.302;14.294;2022-11-20T16:17:18;7.20;35.20
11107;DHT22;5607;48.302;14.294;2022-11-20T16:20:24;7.30;33.40
11107;DHT22;5607;48.302;14.294;2022-11-20T16:23:11;7.30;32.90
11107;DHT22;5607;48.302;14.294;2022-11-20T16:25:57;7.30;34.00
11107;DHT22;5607;48.302;14.294;2022-11-20T16:28:44;7.30;37.00
11107;DHT22;5607;48.302;14.294;2022-11-20T16:31:30;7.30;34.30
11107;DHT22;5607;48.302;14.294;2022-11-20T16:34:16;7.30;36.90
11107;DHT22;5607;48.302;14.294;2022-11-20T16:37:04;7.30;37.90
11107;DHT22;5607;48.302;14.294;2022-11-20T16:39:50;7.30;39.60
11107;DHT22;5607;48.302;14.294;2022-11-20T16:42:37;7.40;41.50
11107;DHT22;5607;48.302;14.294;2022-11-20T16:45:23;7.40;41.90
11107;DHT22;5607;48.302;14.294;2022-11-20T16:48:13;7.30;40.50
11107;DHT22;5607;48.302;14.294;2022-11-20T16:51:00;7.30;40.30
11107;DHT22;5607;48.302;14.294;2022-11-20T16:53:46;7.30;37.60
11107;DHT22;5607;48.302;14.294;2022-11-20T16:56:32;7.30;35.90
11107;DHT22;5607;48.302;14.294;2022-11-20T16:59:19;7.30;34.00
11107;DHT22;5607;48.302;14.294;2022-11-20T17:02:05;7.30;35.30
11107;DHT22;5607;48.302;14.294;2022-11-20T17:04:51;7.30;33.30
11107;DHT22;5607;48.302;14.294;2022-11-20T17:07:38;7.30;33.80
11107;DHT22;5607;48.302;14.294;2022-11-20T17:10:24;7.30;34.40
11107;DHT22;5607;48.302;14.294;2022-11-20T17:13:10;7.30;37.70
11107;DHT22;5607;48.302;14.294;2022-11-20T17:15:59;7.30;38.40
11107;DHT22;5607;48.302;14.294;2022-11-20T17:18:46;7.30;39.10
11107;DHT22;5607;48.302;14.294;2022-11-20T17:21:33;7.30;42.60
11107;DHT22;5607;48.302;14.294;2022-11-20T17:24:23;7.30;43.60
11107;DHT22;5607;48.302;14.294;2022-11-20T17:27:09;7.30;48.00
11107;DHT22;5607;48.302;14.294;2022-11-20T17:29:55;7.30;46.70
11107;DHT22;5607;48.302;14.294;2022-11-20T17:32:43;7.30;44.50
11107;DHT22;5607;48.302;14.294;2022-11-20T17:35:33;7.30;47.40
11107;DHT22;5607;48.302;14.294;2022-11-20T17:38:20;7.30;48.50
11107;DHT22;5607;48.302;14.294;2022-11-20T17:41:07;7.30;51.70
11107;DHT22;5607;48.302;14.294;2022-11-20T17:43:54;7.30;48.30
11107;DHT22;5607;48.302;14.294;2022-11-20T17:46:41;7.40;45.80
11107;DHT22;5607;48.302;14.294;2022-11-20T17:49:27;7.40;45.60
11107;DHT22;5607;48.302;14.294;2022-11-20T17:52:13;7.40;49.50
11107;DHT22;5607;48.302;14.294;2022-11-20T17:55:00;7.30;41.30
11107;DHT22;5607;48.302;14.294;2022-11-20T17:57:46;7.30;35.30
11107;DHT22;5607;48.302;14.294;2022-11-20T18:00:38;7.30;33.90
11107;DHT22;5607;48.302;14.294;2022-11-20T18:03:24;7.30;37.80
11107;DHT22;5607;48.302;14.294;2022-11-20T18:06:12;7.30;37.10
11107;DHT22;5607;48.302;14.294;2022-11-20T18:08:58;7.30;33.10
11107;DHT22;5607;48.302;14.294;2022-11-20T18:11:45;7.30;35.80
11107;DHT22;5607;48.302;14.294;2022-11-20T18:14:31;7.30;33.10
11107;DHT22;5607;48.302;14.294;2022-11-20T18:17:17;7.30;31.60
11107;DHT22;5607;48.302;14.294;2022-11-20T18:20:04;7.30;32.00
11107;DHT22;5607;48.302;14.294;2022-11-20T18:22:50;7.30;32.10
11107;DHT22;5607;48.302;14.294;2022-11-20T18:25:36;7.30;36.90
11107;DHT22;5607;48.302;14.294;2022-11-20T18:28:23;7.30;40.50
11107;DHT22;5607;48.302;14.294;2022-11-20T18:31:10;7.30;43.80
11107;DHT22;5607;48.302;14.294;2022-11-20T18:33:56;7.40;48.00
11107;DHT22;5607;48.302;14.294;2022-11-20T18:36:43;7.30;44.80
11107;DHT22;5607;48.302;14.294;2022-11-20T18:39:30;7.30;40.40
11107;DHT22;5607;48.302;14.294;2022-11-20T18:42:16;7.30;38.30
11107;DHT22;5607;48.302;14.294;2022-11-20T18:45:21;7.30;34.40
11107;DHT22;5607;48.302;14.294;2022-11-20T18:48:07;7.20;33.70
11107;DHT22;5607;48.302;14.294;2022-11-20T18:50:53;7.20;36.30
11107;DHT22;5607;48.302;14.294;2022-11-20T18:53:40;7.20;40.90
11107;DHT22;5607;48.302;14.294;2022-11-20T18:56:26;7.20;41.90
11107;DHT22;5607;48.302;14.294;2022-11-20T18:59:12;7.20;42.20
11107;DHT22;5607;48.302;14.294;2022-11-20T19:01:59;7.20;32.80
11107;DHT22;5607;48.302;14.294;2022-11-20T19:04:45;7.30;33.30
11107;DHT22;5607;48.302;14.294;2022-11-20T19:07:32;7.20;24.20
11107;DHT22;5607;48.302;14.294;2022-11-20T19:10:18;7.20;27.00
11107;DHT22;5607;48.302;14.294;2022-11-20T19:13:05;7.30;25.10
11107;DHT22;5607;48.302;14.294;2022-11-20T19:15:51;7.20;21.90
11107;DHT22;5607;48.302;14.294;2022-11-20T19:18:37;7.20;28.50
11107;DHT22;5607;48.302;14.294;2022-11-20T19:21:24;7.20;30.70